Time;durP1;ratioP1;P1;durP2;ratioP2;P2;SDS_P1;SDS_P2;PMS_P1;PMS_P2;Temp;Humidity;BMP_temperature;BMP_pressure;BME280_temperature;BME280_humidity;BME280_pressure;Samples;Min_cycle;Max_cycle;Signal;HPM_P1;HPM_P2
2023/03/15 00:01:22;;;;;;;0.00;0.00;;;;;;;1.15;100.00;100207.22;6213764;23;20059;-76
2023/03/15 00:04:08;;;;;;;0.00;0.00;;;;;;;1.13;100.00;100195.03;6190845;23;20005;-77
2023/03/15 00:06:36;;;;;;;0.00;0.00;;;;;;;0.98;100.00;100173.69;6214050;23;20001;-77
2023/03/15 00:09:03;;;;;;;0.00;0.00;;;;;;;0.97;100.00;100177.44;6218218;23;20328;-77
2023/03/15 00:11:46;;;;;;;0.00;0.00;;;;;;;1.16;100.00;100214.28;6187086;23;20011;-76
2023/03/15 00:14:19;;;;;;;0.00;0.00;;;;;;;0.85;100.00;100180.75;6188021;23;20313;-74
2023/03/15 00:16:47;;;;;;;0.00;0.00;;;;;;;1.01;100.00;100210.97;6193409;23;20035;-77
2023/03/15 00:23:25;;;;;;;0.10;0.10;;;;;;;0.63;100.00;100180.13;6064480;23;20011;-76
2023/03/15 00:25:51;;;;;;;0.00;0.00;;;;;;;0.85;100.00;100217.63;6098655;23;20016;-75
2023/03/15 00:28:17;;;;;;;0.10;0.10;;;;;;;0.90;100.00;100225.88;6184303;23;20000;-77
2023/03/15 00:30:43;;;;;;;0.00;0.00;;;;;;;0.86;100.00;100219.25;6207298;23;20008;-76
2023/03/15 00:33:16;;;;;;;0.10;0.10;;;;;;;0.82;100.00;100213.47;6185898;23;20753;-77
2023/03/15 00:35:43;;;;;;;0.00;0.00;;;;;;;0.93;100.00;100230.84;6182167;23;20092;-78
2023/03/15 00:38:18;;;;;;;0.10;0.10;;;;;;;0.82;100.00;100216.16;6177750;23;20004;-78
2023/03/15 00:40:53;;;;;;;;;;;;;;;;;;;;;
2023/03/15 00:43:19;;;;;;;0.00;0.00;;;;;;;0.68;100.00;100206.41;6214033;23;19983;-78
2023/03/15 00:46:02;;;;;;;0.00;0.00;;;;;;;0.98;100.00;100254.47;6177022;23;20091;-78
2023/03/15 00:48:28;;;;;;;0.00;0.00;;;;;;;0.83;100.00;100236.66;6161494;23;20023;-80
2023/03/15 00:51:06;;;;;;;0.10;0.10;;;;;;;0.84;100.00;100238.31;6177905;23;20111;-79
2023/03/15 00:53:32;;;;;;;0.00;0.00;;;;;;;0.90;100.00;100246.59;6181380;23;20074;-77
2023/03/15 00:56:15;;;;;;;0.00;0.00;;;;;;;0.85;100.00;100241.84;6204929;23;20011;-78
2023/03/15 00:58:40;;;;;;;0.10;0.10;;;;;;;0.79;100.00;100235.41;6182693;23;20031;-77
2023/03/15 01:01:14;;;;;;;0.00;0.00;;;;;;;0.81;100.00;100244.09;6154098;23;20119;-78
2023/03/15 01:03:41;;;;;;;0.10;0.10;;;;;;;0.85;100.00;100256.13;6210281;23;20019;-75
2023/03/15 01:06:08;;;;;;;0.10;0.10;;;;;;;0.63;100.00;100225.06;6182500;23;20443;-77
2023/03/15 01:08:34;;;;;;;0.00;0.00;;;;;;;0.69;100.00;100232.31;6177121;23;20079;-78
2023/03/15 01:11:14;;;;;;;0.00;0.00;;;;;;;0.67;100.00;100232.50;6159148;23;20443;-77
2023/03/15 01:13:39;;;;;;;0.00;0.00;;;;;;;0.68;100.00;100233.34;6177434;23;20001;-77
2023/03/15 01:16:11;;;;;;;0.00;0.00;;;;;;;0.76;100.00;100249.28;6210277;23;20001;-77
2023/03/15 01:18:43;;;;;;;0.00;0.00;;;;;;;0.72;100.00;100249.91;6182460;23;20036;-77
2023/03/15 01:21:11;;;;;;;0.00;0.00;;;;;;;0.74;100.00;100254.03;6158256;23;20033;-77
2023/03/15 01:23:39;;;;;;;0.00;0.00;;;;;;;0.85;100.00;100271.47;6209078;23;20001;-76
2023/03/15 01:26:11;;;;;;;0.00;0.00;;;;;;;0.86;100.00;100279.31;6155296;23;20012;-77
2023/03/15 01:28:38;;;;;;;0.00;0.00;;;;;;;0.73;100.00;100254.25;6208775;23;20324;-77
2023/03/15 01:31:04;;;;;;;0.10;0.10;;;;;;;0.71;100.00;100249.06;6203422;23;20091;-77
2023/03/15 01:33:30;;;;;;;0.00;0.00;;;;;;;0.71;100.00;100265.22;6157877;23;20069;-77
2023/03/15 01:36:02;;;;;;;0.00;0.00;;;;;;;0.76;100.00;100276.22;6178229;23;20008;-78
2023/03/15 01:38:30;;;;;;;0.00;0.00;;;;;;;0.80;100.00;100288.19;6179638;23;20683;-77
2023/03/15 01:40:57;;;;;;;0.00;0.00;;;;;;;0.78;100.00;100276.81;6178640;23;20012;-77
2023/03/15 01:43:28;;;;;;;0.00;0.00;;;;;;;0.83;100.00;100290.50;6182522;23;20005;-78
2023/03/15 01:46:01;;;;;;;0.00;0.00;;;;;;;0.83;100.00;100300.44;6181806;23;20086;-77
2023/03/15 01:48:51;;;;;;;0.10;0.10;;;;;;;0.83;100.00;100308.50;6211404;23;20008;-77
2023/03/15 01:51:28;;;;;;;0.10;0.10;;;;;;;0.61;100.00;100280.94;6176231;23;20047;-76
2023/03/15 01:54:17;;;;;;;0.10;0.10;;;;;;;0.68;100.00;100308.69;6184275;23;20335;-77
2023/03/15 01:57:06;;;;;;;0.00;0.00;;;;;;;0.51;100.00;100287.56;6176584;23;20035;-77
2023/03/15 01:59:39;;;;;;;0.05;0.05;;;;;;;0.49;100.00;100297.66;6205247;23;20001;-79
2023/03/15 02:02:06;;;;;;;0.00;0.00;;;;;;;0.40;100.00;100296.19;6181311;23;20008;-77
2023/03/15 02:04:53;;;;;;;0.00;0.00;;;;;;;0.29;100.00;100286.88;6180602;23;20009;-77
2023/03/15 02:07:22;;;;;;;0.00;0.00;;;;;;;0.27;100.00;100286.22;6180331;23;20016;-76
2023/03/15 02:10:16;;;;;;;0.00;0.00;;;;;;;0.28;100.00;100300.53;6178641;23;20035;-78
2023/03/15 02:12:46;;;;;;;0.00;0.00;;;;;;;0.15;100.00;100288.66;6139028;23;20011;-77
2023/03/15 02:15:13;;;;;;;0.00;0.00;;;;;;;0.19;100.00;100288.25;6177270;23;20011;-76
2023/03/15 02:17:43;;;;;;;0.00;0.00;;;;;;;0.15;100.00;100285.97;6155458;23;20058;-77
2023/03/15 02:20:09;;;;;;;0.00;0.00;;;;;;;0.16;100.00;100289.47;6183383;23;20008;-77
2023/03/15 02:22:42;;;;;;;0.10;0.10;;;;;;;0.21;100.00;100287.03;6201072;23;20773;-77
2023/03/15 02:25:49;;;;;;;0.00;0.00;;;;;;;0.32;100.00;100299.06;6182576;23;20086;-77
2023/03/15 02:28:17;;;;;;;0.00;0.00;;;;;;;0.19;100.00;100282.88;6175701;23;20091;-77
2023/03/15 02:30:43;;;;;;;0.10;0.10;;;;;;;0.24;100.00;100289.31;6204169;23;20004;-77
2023/03/15 02:33:31;;;;;;;0.00;0.00;;;;;;;0.28;100.00;100305.91;6157788;23;20082;-75
2023/03/15 02:36:29;;;;;;;0.00;0.00;;;;;;;0.25;100.00;100301.75;6178673;23;20004;-77
2023/03/15 02:38:55;;;;;;;0.00;0.00;;;;;;;0.24;100.00;100300.06;6180983;23;20004;-78
2023/03/15 02:41:27;;;;;;;0.00;0.00;;;;;;;0.17;100.00;100291.97;6177584;23;20005;-76
2023/03/15 02:43:57;;;;;;;0.00;0.00;;;;;;;0.26;100.00;100310.63;6178742;23;20388;-77
2023/03/15 02:46:23;;;;;;;0.00;0.00;;;;;;;0.19;100.00;100304.41;6204302;23;20059;-77
2023/03/15 02:48:52;;;;;;;0.00;0.00;;;;;;;0.22;100.00;100309.38;6156654;23;20028;-78
2023/03/15 02:51:41;;;;;;;0.00;0.00;;;;;;;0.20;100.00;100300.69;6204589;23;20084;-78
2023/03/15 02:54:06;;;;;;;0.00;0.00;;;;;;;0.09;100.00;100278.72;6182018;23;20092;-78
2023/03/15 02:56:32;;;;;;;0.00;0.00;;;;;;;0.05;100.00;100274.75;6152399;23;20084;-77
2023/03/15 02:58:58;;;;;;;0.00;0.00;;;;;;;0.05;100.00;100288.22;6184109;23;20096;-77
2023/03/15 03:01:24;;;;;;;0.00;0.00;;;;;;;-0.06;100.00;100267.25;6155078;23;20423;-77
2023/03/15 03:03:49;;;;;;;0.00;0.00;;;;;;;0.05;100.00;100282.00;6181063;23;20004;-77
2023/03/15 03:06:16;;;;;;;0.00;0.00;;;;;;;0.05;100.00;100282.81;6131435;23;20087;-77
2023/03/15 03:08:46;;;;;;;0.00;0.00;;;;;;;0.04;100.00;100286.53;6181869;23;20008;-77
2023/03/15 03:11:17;;;;;;;0.00;0.00;;;;;;;0.01;100.00;100291.50;6176070;23;20001;-77
2023/03/15 03:13:48;;;;;;;0.00;0.00;;;;;;;0.01;100.00;100286.13;6184463;23;19997;-77
2023/03/15 03:16:13;;;;;;;0.00;0.00;;;;;;;-0.11;100.00;100261.66;6178027;23;20016;-78
2023/03/15 03:18:41;;;;;;;0.00;0.00;;;;;;;-0.06;100.00;100292.31;6160822;23;20004;-77
2023/03/15 03:21:07;;;;;;;0.00;0.00;;;;;;;-0.10;100.00;100292.88;6178799;23;20689;-78
2023/03/15 03:23:34;;;;;;;0.10;0.10;;;;;;;-0.05;100.00;100304.69;6158870;23;20016;-79
2023/03/15 03:26:01;;;;;;;0.00;0.00;;;;;;;0.00;100.00;100317.56;6179695;23;20066;-77
2023/03/15 03:28:29;;;;;;;0.10;0.10;;;;;;;-0.12;100.00;100293.06;6210077;23;20008;-78
2023/03/15 03:30:58;;;;;;;0.00;0.00;;;;;;;-0.16;100.00;100291.00;6184574;23;20083;-77
2023/03/15 03:33:23;;;;;;;0.00;0.00;;;;;;;-0.22;100.00;100309.59;6205734;23;20004;-77
2023/03/15 03:35:49;;;;;;;0.10;0.10;;;;;;;-0.34;100.00;100319.22;6184357;23;20312;-77
2023/03/15 03:38:15;;;;;;;0.10;0.10;;;;;;;-0.47;100.00;100316.44;6178940;23;20001;-77
2023/03/15 03:40:40;;;;;;;0.00;0.00;;;;;;;-0.46;100.00;100328.84;6183815;23;20004;-77
2023/03/15 03:43:07;;;;;;;0.00;0.00;;;;;;;-0.69;100.00;100310.28;6205487;23;20433;-77
2023/03/15 03:45:33;;;;;;;0.10;0.10;;;;;;;-0.58;100.00;100334.75;6183689;23;20344;-77
2023/03/15 03:47:58;;;;;;;0.00;0.00;;;;;;;-0.79;100.00;100302.56;6210875;23;20076;-78
2023/03/15 03:50:24;;;;;;;0.05;0.05;;;;;;;-0.74;100.00;100321.63;6154140;23;20004;-77
2023/03/15 03:52:49;;;;;;;0.00;0.00;;;;;;;-0.66;100.00;100332.19;6182843;23;20000;-77
2023/03/15 03:55:15;;;;;;;0.10;0.10;;;;;;;-0.64;100.00;100340.91;6179555;23;20016;-78
2023/03/15 03:57:41;;;;;;;0.10;0.10;;;;;;;-0.66;100.00;100340.25;6159659;23;20039;-78
2023/03/15 04:00:23;;;;;;;0.00;0.00;;;;;;;-0.73;100.00;100328.63;6178591;23;20017;-77
2023/03/15 04:02:52;;;;;;;0.00;0.00;;;;;;;-0.79;100.00;100319.53;6182702;23;20436;-79
2023/03/15 04:05:18;;;;;;;0.10;0.10;;;;;;;-0.90;100.00;100301.25;6178241;23;20008;-80
2023/03/15 04:07:44;;;;;;;0.10;0.10;;;;;;;-0.78;100.00;100309.59;6183104;23;20005;-78
2023/03/15 04:10:13;;;;;;;0.00;0.00;;;;;;;-0.82;100.00;100303.78;6184833;23;20004;-77
2023/03/15 04:12:41;;;;;;;0.10;0.10;;;;;;;-0.83;100.00;100312.03;6177386;23;20058;-77
2023/03/15 04:15:06;;;;;;;0.00;0.00;;;;;;;-0.81;100.00;100332.28;6209724;23;20004;-78
2023/03/15 04:17:32;;;;;;;0.00;0.00;;;;;;;-0.80;100.00;100333.97;6154823;23;20455;-78
2023/03/15 04:20:06;;;;;;;0.00;0.00;;;;;;;-0.89;100.00;100325.22;6183653;23;20442;-78
2023/03/15 04:22:33;;;;;;;0.00;0.00;;;;;;;-0.78;100.00;100341.81;6177325;23;20019;-78
2023/03/15 04:25:01;;;;;;;0.00;0.00;;;;;;;-0.91;100.00;100324.56;6158081;23;20032;-78
2023/03/15 04:27:28;;;;;;;0.10;0.10;;;;;;;-0.87;100.00;100333.06;6178136;23;20008;-78
2023/03/15 04:29:53;;;;;;;0.10;0.10;;;;;;;-0.96;100.00;100321.63;6211001;23;20000;-78
2023/03/15 04:32:21;;;;;;;0.00;0.00;;;;;;;-0.95;100.00;100326.00;6183418;23;20019;-78
2023/03/15 04:34:54;;;;;;;0.10;0.10;;;;;;;-1.03;100.00;100318.06;6154483;23;20004;-78
2023/03/15 04:37:20;;;;;;;0.10;0.10;;;;;;;-0.92;100.00;100344.41;6183862;23;20017;-78
2023/03/15 04:40:03;;;;;;;0.10;0.10;;;;;;;-1.00;100.00;100327.59;6152928;23;20005;-79
2023/03/15 04:42:29;;;;;;;0.10;0.10;;;;;;;-0.97;100.00;100333.38;6182594;23;20009;-78
2023/03/15 04:44:54;;;;;;;0.00;0.00;;;;;;;-1.01;100.00;100325.91;6177274;23;19996;-78
2023/03/15 04:47:21;;;;;;;0.00;0.00;;;;;;;-1.01;100.00;100321.38;6183084;23;20498;-77
2023/03/15 04:49:49;;;;;;;0.00;0.00;;;;;;;-0.96;100.00;100329.69;6153126;23;20427;-78
2023/03/15 04:52:15;;;;;;;0.10;0.10;;;;;;;-1.03;100.00;100323.44;6207853;23;19999;-78
2023/03/15 04:54:40;;;;;;;0.10;0.10;;;;;;;-0.92;100.00;100341.72;6178965;23;20423;-79
2023/03/15 04:57:06;;;;;;;0.00;0.00;;;;;;;-0.91;100.00;100337.97;6184278;23;20305;-77
2023/03/15 04:59:31;;;;;;;0.10;0.10;;;;;;;-0.83;100.00;100338.88;6158454;23;20462;-78
2023/03/15 05:01:56;;;;;;;0.10;0.10;;;;;;;-0.86;100.00;100317.78;6179155;23;20008;-77
2023/03/15 05:04:22;;;;;;;0.00;0.00;;;;;;;-0.64;100.00;100351.66;6182777;23;20001;-79
2023/03/15 05:06:49;;;;;;;0.00;0.00;;;;;;;-0.70;100.00;100333.63;6181539;23;20081;-78
2023/03/15 05:09:17;;;;;;;0.00;0.00;;;;;;;-0.74;100.00;100319.75;6176754;23;20054;-78
2023/03/15 05:11:47;;;;;;;0.00;0.00;;;;;;;-0.62;100.00;100335.34;6209225;23;20030;-78
2023/03/15 05:14:12;;;;;;;0.10;0.10;;;;;;;-0.53;100.00;100336.84;6176186;23;20009;-77
2023/03/15 05:16:38;;;;;;;0.10;0.10;;;;;;;-0.61;100.00;100316.34;6160907;23;20015;-78
2023/03/15 05:19:08;;;;;;;0.00;0.00;;;;;;;-0.57;100.00;100322.16;6178723;23;20060;-77
2023/03/15 05:21:36;;;;;;;0.00;0.00;;;;;;;-0.48;100.00;100337.13;6182478;23;20051;-78
2023/03/15 05:24:02;;;;;;;0.00;0.00;;;;;;;-0.47;100.00;100333.38;6178932;23;20338;-78
2023/03/15 05:26:28;;;;;;;0.10;0.10;;;;;;;-0.45;100.00;100330.50;6184499;23;20017;-78
2023/03/15 05:28:56;;;;;;;0.00;0.00;;;;;;;-0.47;100.00;100337.94;6159209;23;20039;-78
2023/03/15 05:31:21;;;;;;;0.10;0.10;;;;;;;-0.42;100.00;100352.44;6176847;23;20607;-77
2023/03/15 05:33:49;;;;;;;0.10;0.10;;;;;;;-0.45;100.00;100358.22;6183678;23;20015;-77
2023/03/15 05:36:14;;;;;;;0.00;0.00;;;;;;;-0.50;100.00;100360.63;6177041;23;20020;-77
2023/03/15 05:38:48;;;;;;;0.00;0.00;;;;;;;-0.52;100.00;100354.66;6157745;23;20416;-80
2023/03/15 05:41:16;;;;;;;0.10;0.10;;;;;;;-0.51;100.00;100352.78;6177898;23;19996;-77
2023/03/15 05:43:42;;;;;;;0.00;0.00;;;;;;;-0.35;100.00;100379.38;6181384;23;20009;-77
2023/03/15 05:46:10;;;;;;;0.10;0.10;;;;;;;-0.41;100.00;100374.75;6151707;23;20446;-77
2023/03/15 05:48:38;;;;;;;0.00;0.00;;;;;;;-0.47;100.00;100364.81;6209297;23;20000;-77
2023/03/15 05:51:04;;;;;;;0.00;0.00;;;;;;;-0.35;100.00;100384.75;6181780;23;20034;-77
2023/03/15 05:53:29;;;;;;;0.10;0.10;;;;;;;-0.43;100.00;100372.28;6179952;23;20498;-77
2023/03/15 05:55:55;;;;;;;0.00;0.00;;;;;;;-0.44;100.00;100365.25;6181959;23;20457;-78
2023/03/15 05:58:20;;;;;;;0.10;0.10;;;;;;;-0.37;100.00;100378.72;6178450;23;20005;-77
2023/03/15 06:00:53;;;;;;;0.10;0.10;;;;;;;-0.46;100.00;100371.84;6158381;23;20009;-78
2023/03/15 06:03:19;;;;;;;0.00;0.00;;;;;;;-0.31;100.00;100396.75;6177647;23;20770;-77
2023/03/15 06:05:44;;;;;;;0.10;0.10;;;;;;;-0.34;100.00;100389.06;6181494;23;20016;-78
2023/03/15 06:08:10;;;;;;;0.10;0.10;;;;;;;-0.36;100.00;100383.91;6156917;23;20000;-78
2023/03/15 06:10:37;;;;;;;0.00;0.00;;;;;;;-0.44;100.00;100359.03;6157425;23;20462;-76
2023/03/15 06:13:05;;;;;;;0.00;0.00;;;;;;;-0.39;100.00;100370.03;6184363;23;20297;-77
2023/03/15 06:15:31;;;;;;;0.10;0.10;;;;;;;-0.36;100.00;100361.59;6176929;23;19997;-76
2023/03/15 06:17:59;;;;;;;0.10;0.10;;;;;;;-0.26;100.00;100380.88;6183315;23;20079;-77
2023/03/15 06:20:25;;;;;;;0.00;0.00;;;;;;;-0.21;100.00;100381.09;6157019;23;20427;-76
2023/03/15 06:22:54;;;;;;;0.10;0.10;;;;;;;-0.27;100.00;100368.47;6203704;23;20032;-77
2023/03/15 06:25:19;;;;;;;0.00;0.00;;;;;;;-0.15;100.00;100389.44;6182592;23;20000;-77
2023/03/15 06:28:01;;;;;;;0.10;0.10;;;;;;;-0.20;100.00;100374.72;6177019;23;20016;-76
2023/03/15 06:30:29;;;;;;;0.00;0.00;;;;;;;-0.22;100.00;100373.25;6182709;23;20005;-77
2023/03/15 06:32:55;;;;;;;0.00;0.00;;;;;;;-0.09;100.00;100399.38;6153267;23;20021;-76
2023/03/15 06:35:21;;;;;;;0.00;0.00;;;;;;;-0.05;100.00;100400.66;6181996;23;20073;-77
2023/03/15 06:37:46;;;;;;;0.00;0.00;;;;;;;0.02;100.00;100412.28;6178025;23;20012;-78
2023/03/15 06:40:15;;;;;;;0.00;0.00;;;;;;;-0.10;100.00;100381.59;6207297;23;20036;-77
2023/03/15 06:42:43;;;;;;;0.08;0.08;;;;;;;-0.09;100.00;100384.09;6176487;23;20009;-76
2023/03/15 06:45:09;;;;;;;0.00;0.00;;;;;;;0.05;100.00;100406.50;6158377;23;20340;-77
2023/03/15 06:47:37;;;;;;;0.00;0.00;;;;;;;-0.02;100.00;100378.75;6184050;23;20108;-76
2023/03/15 06:50:03;;;;;;;0.10;0.10;;;;;;;0.19;100.00;100417.34;6153100;23;20446;-76
2023/03/15 06:52:28;;;;;;;0.00;0.00;;;;;;;0.27;100.00;100412.63;6160655;23;20040;-76
2023/03/15 06:54:54;;;;;;;0.10;0.10;;;;;;;0.36;100.00;100413.31;6178031;23;20009;-76
2023/03/15 06:57:19;;;;;;;0.10;0.10;;;;;;;0.32;100.00;100407.50;6185302;23;20008;-76
2023/03/15 07:00:06;;;;;;;0.00;0.00;;;;;;;0.30;100.00;100403.34;6179257;23;20009;-77
2023/03/15 07:02:36;;;;;;;0.10;0.10;;;;;;;0.41;100.00;100415.41;6182516;23;20051;-77
2023/03/15 07:05:02;;;;;;;0.00;0.00;;;;;;;0.57;100.00;100425.00;6181351;23;20177;-78
2023/03/15 07:07:28;;;;;;;0.00;0.00;;;;;;;0.63;100.00;100405.38;6185242;23;20013;-78
2023/03/15 07:09:53;;;;;;;0.10;0.10;;;;;;;0.72;100.00;100409.53;6186210;23;20028;-78
2023/03/15 07:12:21;;;;;;;0.00;0.00;;;;;;;0.93;100.00;100422.03;6178856;23;20673;-80
2023/03/15 07:14:49;;;;;;;0.10;0.10;;;;;;;1.20;100.00;100436.41;6160051;23;20062;-79
2023/03/15 07:17:15;;;;;;;0.00;0.00;;;;;;;1.31;100.00;100426.06;6183887;23;20692;-80
2023/03/15 07:19:43;;;;;;;0.00;0.00;;;;;;;1.51;100.00;100432.28;6188740;23;20009;-77
2023/03/15 07:22:17;;;;;;;0.00;0.00;;;;;;;1.78;100.00;100428.78;6179109;23;20004;-78
2023/03/15 07:24:42;;;;;;;0.10;0.10;;;;;;;1.96;100.00;100445.16;6187619;23;20008;-79
2023/03/15 07:27:13;;;;;;;0.00;0.00;;;;;;;2.14;100.00;100441.81;6158571;23;20059;-77
2023/03/15 07:29:39;;;;;;;0.00;0.00;;;;;;;2.29;100.00;100424.56;6183806;23;20008;-77
2023/03/15 07:32:13;;;;;;;0.00;0.00;;;;;;;2.56;100.00;100444.22;6161340;23;20040;-78
2023/03/15 07:34:39;;;;;;;0.00;0.00;;;;;;;2.70;99.66;100447.69;6178694;23;20084;-77
2023/03/15 07:37:04;;;;;;;0.08;0.08;;;;;;;2.62;99.09;100444.19;6209791;23;20373;-77
2023/03/15 07:39:34;;;;;;;0.10;0.10;;;;;;;2.61;99.84;100437.16;6183729;23;20004;-80
2023/03/15 07:42:00;;;;;;;0.00;0.00;;;;;;;2.74;100.00;100451.63;6178732;23;20061;-79
2023/03/15 07:44:28;;;;;;;0.00;0.00;;;;;;;2.72;100.00;100432.94;6183391;23;20409;-78
2023/03/15 07:46:54;;;;;;;0.00;0.00;;;;;;;2.87;99.71;100432.66;6203360;23;20001;-80
2023/03/15 07:49:20;;;;;;;0.10;0.10;;;;;;;3.20;99.19;100444.34;6183780;23;20078;-78
2023/03/15 07:51:45;;;;;;;0.00;0.00;;;;;;;3.30;97.87;100439.28;6179280;23;20443;-77
2023/03/15 07:54:22;;;;;;;0.00;0.00;;;;;;;3.42;97.44;100436.75;6182506;23;20016;-80
2023/03/15 07:56:48;;;;;;;0.00;0.00;;;;;;;3.59;97.14;100428.91;6180259;23;20004;-76
2023/03/15 07:59:20;;;;;;;0.00;0.00;;;;;;;3.67;96.51;100423.25;6211999;23;20007;-77
2023/03/15 08:01:51;;;;;;;0.00;0.00;;;;;;;3.93;94.96;100424.88;6206690;23;20047;-75
2023/03/15 08:04:18;;;;;;;0.10;0.10;;;;;;;4.10;93.84;100410.78;6183661;23;20004;-76
2023/03/15 08:07:03;;;;;;;0.00;0.00;;;;;;;4.42;93.06;100402.53;6183611;23;20000;-76
2023/03/15 08:09:28;;;;;;;0.03;0.03;;;;;;;4.60;90.99;100420.66;6184941;23;20015;-76
2023/03/15 08:11:54;;;;;;;0.00;0.00;;;;;;;4.58;91.31;100414.66;6157366;23;20001;-76
2023/03/15 08:14:38;;;;;;;0.00;0.00;;;;;;;4.49;91.71;100411.41;6151264;23;20012;-74
2023/03/15 08:17:11;;;;;;;0.10;0.10;;;;;;;4.50;92.10;100421.19;6184731;23;20027;-76
2023/03/15 08:19:36;;;;;;;0.00;0.00;;;;;;;4.54;91.41;100427.78;6160217;23;20466;-76
2023/03/15 08:22:02;;;;;;;0.00;0.00;;;;;;;4.49;91.17;100439.31;6159154;23;20004;-76
2023/03/15 08:24:29;;;;;;;0.00;0.00;;;;;;;4.47;91.70;100427.06;6181338;23;20008;-76
2023/03/15 08:26:57;;;;;;;0.00;0.00;;;;;;;4.51;92.14;100428.25;6160486;23;20020;-75
2023/03/15 08:29:23;;;;;;;0.00;0.00;;;;;;;4.76;92.38;100436.31;6180213;23;20011;-76
2023/03/15 08:31:48;;;;;;;0.00;0.00;;;;;;;4.96;92.26;100436.03;6182788;23;20595;-75
2023/03/15 08:34:14;;;;;;;0.00;0.00;;;;;;;4.94;91.42;100421.91;6154664;23;20013;-76
2023/03/15 08:36:40;;;;;;;0.00;0.00;;;;;;;4.98;91.18;100431.22;6157787;23;20458;-76
2023/03/15 08:39:08;;;;;;;0.00;0.00;;;;;;;5.11;90.81;100434.81;6175694;23;20009;-75
2023/03/15 08:41:34;;;;;;;0.00;0.00;;;;;;;4.87;90.10;100418.44;6177593;23;20018;-76
2023/03/15 08:44:00;;;;;;;0.10;0.10;;;;;;;4.89;89.89;100432.59;6158598;23;20367;-75
2023/03/15 08:46:29;;;;;;;0.00;0.00;;;;;;;5.04;91.66;100424.88;6151367;23;20090;-76
2023/03/15 08:48:57;;;;;;;0.00;0.00;;;;;;;5.28;90.32;100432.28;6159223;23;20498;-76
2023/03/15 08:51:30;;;;;;;0.00;0.00;;;;;;;5.55;90.13;100432.72;6178137;23;20442;-75
2023/03/15 08:53:55;;;;;;;0.00;0.00;;;;;;;5.68;89.12;100418.09;6182950;23;20009;-75
2023/03/15 08:56:23;;;;;;;0.00;0.00;;;;;;;5.98;89.08;100425.38;6178073;23;20015;-76
2023/03/15 08:58:58;;;;;;;0.00;0.00;;;;;;;6.16;86.62;100421.72;6208627;23;20004;-75
2023/03/15 09:01:24;;;;;;;0.10;0.10;;;;;;;6.27;85.92;100429.03;6179307;23;20009;-76
2023/03/15 09:03:50;;;;;;;0.00;0.00;;;;;;;6.69;85.57;100442.44;6184829;23;20494;-76
2023/03/15 09:06:16;;;;;;;0.00;0.00;;;;;;;7.10;84.58;100431.56;6155743;23;20012;-76
2023/03/15 09:08:43;;;;;;;0.10;0.10;;;;;;;7.50;83.34;100423.31;6212052;23;20072;-76
2023/03/15 09:11:09;;;;;;;0.00;0.00;;;;;;;8.02;82.59;100435.84;6182742;23;20518;-77
2023/03/15 09:13:34;;;;;;;0.00;0.00;;;;;;;8.39;81.06;100437.19;6152764;23;20025;-77
2023/03/15 09:16:00;;;;;;;0.00;0.00;;;;;;;8.78;80.38;100445.38;6185428;23;20027;-77
2023/03/15 09:18:28;;;;;;;0.00;0.00;;;;;;;9.08;78.83;100439.47;6183152;23;20535;-76
2023/03/15 09:20:53;;;;;;;0.00;0.00;;;;;;;9.17;77.51;100442.56;6178286;23;20008;-77
2023/03/15 09:23:19;;;;;;;0.00;0.00;;;;;;;9.33;76.55;100431.81;6157545;23;20037;-78
2023/03/15 09:25:45;;;;;;;0.00;0.00;;;;;;;9.31;75.26;100431.25;6181641;23;20020;-76
2023/03/15 09:28:10;;;;;;;0.00;0.00;;;;;;;9.42;74.88;100433.00;6177551;23;20050;-76
2023/03/15 09:30:38;;;;;;;0.00;0.00;;;;;;;9.33;72.35;100445.44;6180042;23;20087;-77
2023/03/15 09:33:03;;;;;;;0.00;0.00;;;;;;;9.22;73.08;100439.88;6108909;23;20319;-76
2023/03/15 09:35:29;;;;;;;0.00;0.00;;;;;;;9.26;72.22;100446.47;6173194;23;20039;-79
2023/03/15 09:37:54;;;;;;;0.00;0.00;;;;;;;9.15;71.12;100433.00;6155091;23;21023;-77
2023/03/15 09:40:32;;;;;;;0.00;0.00;;;;;;;9.09;70.66;100446.56;6154645;23;20019;-76
2023/03/15 09:43:06;;;;;;;0.00;0.00;;;;;;;8.87;68.87;100449.31;6183627;23;20005;-76
2023/03/15 09:46:00;;;;;;;0.00;0.00;;;;;;;8.58;70.50;100456.03;6180951;23;20374;-76
2023/03/15 09:48:48;;;;;;;0.00;0.00;;;;;;;8.85;71.28;100453.41;6206925;23;20008;-77
2023/03/15 09:51:38;;;;;;;0.03;0.03;;;;;;;9.09;70.18;100441.09;6177449;23;20134;-77
2023/03/15 09:54:10;;;;;;;0.00;0.00;;;;;;;9.34;69.11;100441.66;6182845;23;20009;-77
2023/03/15 09:56:44;;;;;;;0.00;0.00;;;;;;;9.54;67.85;100441.84;6178230;23;20001;-77
2023/03/15 09:59:11;;;;;;;0.00;0.00;;;;;;;9.34;66.80;100444.38;6205870;23;20000;-76
2023/03/15 10:01:39;;;;;;;0.00;0.00;;;;;;;9.34;68.09;100452.56;6179352;23;20501;-77
2023/03/15 10:04:26;;;;;;;0.00;0.00;;;;;;;9.74;67.71;100452.13;6182745;23;20028;-77
2023/03/15 10:06:55;;;;;;;0.10;0.10;;;;;;;10.17;67.23;100460.38;6180656;23;20000;-77
2023/03/15 10:09:28;;;;;;;0.00;0.00;;;;;;;10.18;65.04;100461.19;6181767;23;20051;-76
2023/03/15 10:12:04;;;;;;;0.00;0.00;;;;;;;9.95;64.88;100458.56;6174990;23;20015;-77
2023/03/15 10:15:03;;;;;;;0.00;0.00;;;;;;;9.78;65.20;100463.34;6183474;23;20008;-77
2023/03/15 10:17:41;;;;;;;0.00;0.00;;;;;;;9.47;64.64;100460.34;6171902;23;20015;-75
2023/03/15 10:20:17;;;;;;;0.00;0.00;;;;;;;9.29;64.84;100460.69;6184933;23;20042;-77
2023/03/15 10:23:02;;;;;;;0.00;0.00;;;;;;;9.28;63.82;100459.88;6176593;23;20004;-77
2023/03/15 10:25:32;;;;;;;0.10;0.10;;;;;;;8.93;64.71;100443.94;6195330;23;20015;-78
2023/03/15 10:28:08;;;;;;;0.00;0.00;;;;;;;9.12;65.51;100458.88;6186153;23;19996;-77
2023/03/15 10:30:36;;;;;;;0.00;0.00;;;;;;;9.36;65.79;100461.31;6181664;23;20005;-77
2023/03/15 10:33:02;;;;;;;0.00;0.00;;;;;;;9.26;63.33;100449.22;6184167;23;20001;-78
2023/03/15 10:35:30;;;;;;;0.00;0.00;;;;;;;9.21;63.90;100445.59;6207112;23;20019;-78
2023/03/15 10:38:01;;;;;;;0.00;0.00;;;;;;;9.39;63.97;100433.53;6147802;23;20058;-77
2023/03/15 10:40:49;;;;;;;0.00;0.00;;;;;;;9.63;62.45;100452.31;6156953;23;20092;-77
2023/03/15 10:43:33;;;;;;;0.00;0.00;;;;;;;9.44;62.18;100441.75;6209637;23;20061;-77
2023/03/15 10:46:10;;;;;;;0.00;0.00;;;;;;;9.68;62.45;100446.88;6184020;23;20146;-76
2023/03/15 10:49:06;;;;;;;0.00;0.00;;;;;;;9.73;62.43;100439.56;6180602;23;20015;-77
2023/03/15 10:51:42;;;;;;;0.00;0.00;;;;;;;9.57;60.57;100427.69;6171832;23;20008;-78
2023/03/15 10:54:34;;;;;;;0.00;0.00;;;;;;;9.72;61.67;100439.81;6184043;23;20012;-77
2023/03/15 10:57:13;;;;;;;0.00;0.00;;;;;;;9.87;61.51;100436.38;6176703;23;20009;-77
2023/03/15 11:00:16;;;;;;;0.00;0.00;;;;;;;9.93;61.08;100436.19;6207368;23;20305;-78
2023/03/15 11:03:02;;;;;;;0.00;0.00;;;;;;;9.89;61.07;100421.38;6176806;23;20001;-77
2023/03/15 11:05:40;;;;;;;0.08;0.08;;;;;;;9.99;60.54;100431.59;6182856;23;20067;-77
2023/03/15 11:08:15;;;;;;;0.00;0.00;;;;;;;10.11;61.12;100417.72;6184595;23;20020;-77
2023/03/15 11:10:41;;;;;;;0.00;0.00;;;;;;;10.46;59.38;100435.47;6205995;23;20071;-79
2023/03/15 11:13:19;;;;;;;0.00;0.00;;;;;;;10.45;59.64;100434.66;6211368;23;20001;-78
2023/03/15 11:16:12;;;;;;;0.00;0.00;;;;;;;10.46;60.09;100436.28;6208168;23;20012;-77
2023/03/15 11:19:14;;;;;;;0.00;0.00;;;;;;;10.48;60.47;100427.81;6186330;23;20008;-76
2023/03/15 11:21:43;;;;;;;0.00;0.00;;;;;;;10.61;60.24;100437.44;6177686;23;20491;-77
2023/03/15 11:24:36;;;;;;;0.00;0.00;;;;;;;10.61;59.10;100431.97;6211373;23;20009;-77
2023/03/15 11:27:08;;;;;;;0.00;0.00;;;;;;;10.60;58.86;100431.16;6212439;23;20293;-77
2023/03/15 11:29:36;;;;;;;0.10;0.10;;;;;;;10.51;59.31;100427.28;6181060;23;20000;-78
2023/03/15 11:32:18;;;;;;;0.00;0.00;;;;;;;10.38;59.87;100417.66;6174832;23;20048;-77
2023/03/15 11:34:53;;;;;;;0.00;0.00;;;;;;;10.77;59.97;100432.88;6184357;23;20028;-77
2023/03/15 11:37:26;;;;;;;0.00;0.00;;;;;;;10.67;60.05;100424.63;6177069;23;20664;-78
2023/03/15 11:40:12;;;;;;;0.00;0.00;;;;;;;10.58;60.19;100422.38;6177538;23;20008;-78
2023/03/15 11:42:46;;;;;;;0.00;0.00;;;;;;;10.59;60.63;100429.50;6184729;23;20479;-78
2023/03/15 11:45:16;;;;;;;;;;;;;;;10.51;60.70;100434.66;6176615;23;20004;-77
2023/03/15 11:48:10;;;;;;;0.00;0.00;;;;;;;10.54;60.78;100426.75;6183436;23;19970;-77